sensor_id;sensor_type;location;lat;lon;timestamp;P1;durP1;ratioP1;P2;durP2;ratioP2
7332;SDS011;3707;43.618;25.342;2022-07-17T00:00:24;2.63;;;2.42;;
7332;SDS011;3707;43.618;25.342;2022-07-17T00:02:51;3.05;;;2.70;;
7332;SDS011;3707;43.618;25.342;2022-07-17T00:05:19;3.20;;;2.88;;
7332;SDS011;3707;43.618;25.342;2022-07-17T00:07:46;4.05;;;2.60;;
7332;SDS011;3707;43.618;25.342;2022-07-17T00:10:13;4.40;;;2.55;;
7332;SDS011;3707;43.618;25.342;2022-07-17T00:12:41;3.03;;;2.63;;
7332;SDS011;3707;43.618;25.342;2022-07-17T00:15:09;3.45;;;2.30;;
7332;SDS011;3707;43.618;25.342;2022-07-17T00:17:36;4.45;;;2.25;;
7332;SDS011;3707;43.618;25.342;2022-07-17T00:20:03;2.78;;;2.45;;
7332;SDS011;3707;43.618;25.342;2022-07-17T00:22:32;2.55;;;2.35;;
7332;SDS011;3707;43.618;25.342;2022-07-17T00:24:59;2.65;;;2.45;;
7332;SDS011;3707;43.618;25.342;2022-07-17T00:27:26;7.10;;;2.58;;
7332;SDS011;3707;43.618;25.342;2022-07-17T00:29:53;4.88;;;2.80;;
7332;SDS011;3707;43.618;25.342;2022-07-17T00:32:20;3.25;;;2.55;;
7332;SDS011;3707;43.618;25.342;2022-07-17T00:34:48;2.35;;;2.20;;
7332;SDS011;3707;43.618;25.342;2022-07-17T00:37:15;3.70;;;2.42;;
7332;SDS011;3707;43.618;25.342;2022-07-17T00:39:43;5.18;;;3.17;;
7332;SDS011;3707;43.618;25.342;2022-07-17T00:42:11;2.80;;;2.20;;
7332;SDS011;3707;43.618;25.342;2022-07-17T00:44:38;4.25;;;2.83;;
7332;SDS011;3707;43.618;25.342;2022-07-17T00:47:09;2.90;;;2.42;;
7332;SDS011;3707;43.618;25.342;2022-07-17T00:49:38;5.72;;;2.58;;
7332;SDS011;3707;43.618;25.342;2022-07-17T00:52:05;2.25;;;2.05;;
7332;SDS011;3707;43.618;25.342;2022-07-17T00:54:34;8.73;;;2.70;;
7332;SDS011;3707;43.618;25.342;2022-07-17T00:57:06;7.07;;;2.00;;
7332;SDS011;3707;43.618;25.342;2022-07-17T00:59:34;2.58;;;2.40;;
7332;SDS011;3707;43.618;25.342;2022-07-17T01:02:02;4.03;;;2.53;;
7332;SDS011;3707;43.618;25.342;2022-07-17T01:04:30;4.65;;;2.33;;
7332;SDS011;3707;43.618;25.342;2022-07-17T01:06:58;3.83;;;2.60;;
7332;SDS011;3707;43.618;25.342;2022-07-17T01:09:25;5.90;;;2.60;;
7332;SDS011;3707;43.618;25.342;2022-07-17T01:11:52;2.63;;;2.15;;
7332;SDS011;3707;43.618;25.342;2022-07-17T01:14:21;4.43;;;2.20;;
7332;SDS011;3707;43.618;25.342;2022-07-17T01:16:48;2.50;;;2.30;;
7332;SDS011;3707;43.618;25.342;2022-07-17T01:19:16;3.78;;;2.45;;
7332;SDS011;3707;43.618;25.342;2022-07-17T01:21:45;2.30;;;2.20;;
7332;SDS011;3707;43.618;25.342;2022-07-17T01:24:14;2.50;;;2.30;;
7332;SDS011;3707;43.618;25.342;2022-07-17T01:26:42;3.72;;;2.90;;
7332;SDS011;3707;43.618;25.342;2022-07-17T01:29:09;3.28;;;2.50;;
7332;SDS011;3707;43.618;25.342;2022-07-17T01:31:38;6.50;;;2.60;;
7332;SDS011;3707;43.618;25.342;2022-07-17T01:34:06;3.90;;;2.80;;
7332;SDS011;3707;43.618;25.342;2022-07-17T01:36:34;4.80;;;2.85;;
7332;SDS011;3707;43.618;25.342;2022-07-17T01:39:03;3.50;;;2.65;;
7332;SDS011;3707;43.618;25.342;2022-07-17T01:41:31;3.63;;;2.65;;
7332;SDS011;3707;43.618;25.342;2022-07-17T01:43:58;5.75;;;2.97;;
7332;SDS011;3707;43.618;25.342;2022-07-17T01:46:25;3.88;;;2.88;;
7332;SDS011;3707;43.618;25.342;2022-07-17T01:48:52;2.35;;;2.10;;
7332;SDS011;3707;43.618;25.342;2022-07-17T01:51:19;3.15;;;2.63;;
7332;SDS011;3707;43.618;25.342;2022-07-17T01:53:46;2.70;;;2.50;;
7332;SDS011;3707;43.618;25.342;2022-07-17T01:56:14;4.10;;;3.05;;
7332;SDS011;3707;43.618;25.342;2022-07-17T01:58:41;8.20;;;2.63;;
7332;SDS011;3707;43.618;25.342;2022-07-17T02:01:08;3.15;;;2.95;;
7332;SDS011;3707;43.618;25.342;2022-07-17T02:03:35;2.55;;;2.30;;
7332;SDS011;3707;43.618;25.342;2022-07-17T02:06:02;3.42;;;2.95;;
7332;SDS011;3707;43.618;25.342;2022-07-17T02:08:28;3.00;;;2.80;;
7332;SDS011;3707;43.618;25.342;2022-07-17T02:10:55;3.17;;;2.75;;
7332;SDS011;3707;43.618;25.342;2022-07-17T02:13:24;2.58;;;2.38;;
7332;SDS011;3707;43.618;25.342;2022-07-17T02:15:50;9.80;;;2.97;;
7332;SDS011;3707;43.618;25.342;2022-07-17T02:18:17;4.30;;;3.08;;
7332;SDS011;3707;43.618;25.342;2022-07-17T02:20:44;4.30;;;2.70;;
7332;SDS011;3707;43.618;25.342;2022-07-17T02:23:14;3.08;;;2.88;;
7332;SDS011;3707;43.618;25.342;2022-07-17T02:25:41;2.67;;;2.47;;
7332;SDS011;3707;43.618;25.342;2022-07-17T02:28:08;6.20;;;2.90;;
7332;SDS011;3707;43.618;25.342;2022-07-17T02:30:37;2.80;;;2.50;;
7332;SDS011;3707;43.618;25.342;2022-07-17T02:33:03;6.93;;;3.15;;
7332;SDS011;3707;43.618;25.342;2022-07-17T02:35:32;8.98;;;2.80;;
7332;SDS011;3707;43.618;25.342;2022-07-17T02:37:59;14.18;;;3.00;;
7332;SDS011;3707;43.618;25.342;2022-07-17T02:40:26;3.55;;;3.00;;
7332;SDS011;3707;43.618;25.342;2022-07-17T02:42:53;3.20;;;2.90;;
7332;SDS011;3707;43.618;25.342;2022-07-17T02:45:20;3.72;;;2.45;;
7332;SDS011;3707;43.618;25.342;2022-07-17T02:47:51;7.43;;;2.63;;
7332;SDS011;3707;43.618;25.342;2022-07-17T02:50:18;3.28;;;2.70;;
7332;SDS011;3707;43.618;25.342;2022-07-17T02:52:45;2.63;;;2.42;;
7332;SDS011;3707;43.618;25.342;2022-07-17T02:55:14;5.47;;;3.00;;
7332;SDS011;3707;43.618;25.342;2022-07-17T02:57:42;6.95;;;4.82;;
7332;SDS011;3707;43.618;25.342;2022-07-17T03:00:12;4.97;;;2.67;;
7332;SDS011;3707;43.618;25.342;2022-07-17T03:02:40;3.58;;;2.95;;
7332;SDS011;3707;43.618;25.342;2022-07-17T03:05:09;3.85;;;3.05;;
7332;SDS011;3707;43.618;25.342;2022-07-17T03:07:36;5.88;;;3.30;;
7332;SDS011;3707;43.618;25.342;2022-07-17T03:10:03;4.88;;;2.53;;
7332;SDS011;3707;43.618;25.342;2022-07-17T03:12:31;3.38;;;3.08;;
7332;SDS011;3707;43.618;25.342;2022-07-17T03:14:57;3.53;;;3.13;;
7332;SDS011;3707;43.618;25.342;2022-07-17T03:17:24;4.97;;;2.88;;
7332;SDS011;3707;43.618;25.342;2022-07-17T03:19:51;3.42;;;3.08;;
7332;SDS011;3707;43.618;25.342;2022-07-17T03:22:19;7.22;;;3.03;;
7332;SDS011;3707;43.618;25.342;2022-07-17T03:24:46;3.45;;;3.15;;
7332;SDS011;3707;43.618;25.342;2022-07-17T03:27:13;4.55;;;3.05;;
7332;SDS011;3707;43.618;25.342;2022-07-17T03:29:40;4.22;;;3.17;;
7332;SDS011;3707;43.618;25.342;2022-07-17T03:32:07;4.45;;;3.28;;
7332;SDS011;3707;43.618;25.342;2022-07-17T03:34:34;3.92;;;3.22;;
7332;SDS011;3707;43.618;25.342;2022-07-17T03:37:00;4.95;;;3.33;;
7332;SDS011;3707;43.618;25.342;2022-07-17T03:39:29;3.65;;;2.90;;
7332;SDS011;3707;43.618;25.342;2022-07-17T03:41:56;5.80;;;3.45;;
7332;SDS011;3707;43.618;25.342;2022-07-17T03:44:22;5.03;;;3.15;;
7332;SDS011;3707;43.618;25.342;2022-07-17T03:46:49;4.45;;;2.97;;
7332;SDS011;3707;43.618;25.342;2022-07-17T03:49:16;3.13;;;2.78;;
7332;SDS011;3707;43.618;25.342;2022-07-17T03:51:43;3.97;;;3.22;;
7332;SDS011;3707;43.618;25.342;2022-07-17T03:54:10;4.13;;;3.22;;
7332;SDS011;3707;43.618;25.342;2022-07-17T03:56:38;6.60;;;3.58;;
7332;SDS011;3707;43.618;25.342;2022-07-17T03:59:05;3.28;;;3.00;;
7332;SDS011;3707;43.618;25.342;2022-07-17T04:01:32;3.58;;;3.28;;
7332;SDS011;3707;43.618;25.342;2022-07-17T04:03:58;3.40;;;3.10;;
7332;SDS011;3707;43.618;25.342;2022-07-17T04:06:25;2.92;;;2.72;;
7332;SDS011;3707;43.618;25.342;2022-07-17T04:08:52;5.47;;;3.05;;
7332;SDS011;3707;43.618;25.342;2022-07-17T04:11:19;3.15;;;2.95;;
7332;SDS011;3707;43.618;25.342;2022-07-17T04:13:47;2.70;;;2.50;;
7332;SDS011;3707;43.618;25.342;2022-07-17T04:16:15;7.40;;;3.58;;
7332;SDS011;3707;43.618;25.342;2022-07-17T04:18:42;3.55;;;3.28;;
7332;SDS011;3707;43.618;25.342;2022-07-17T04:21:09;5.72;;;3.38;;
7332;SDS011;3707;43.618;25.342;2022-07-17T04:23:36;6.95;;;2.95;;
7332;SDS011;3707;43.618;25.342;2022-07-17T04:26:04;3.58;;;2.90;;
7332;SDS011;3707;43.618;25.342;2022-07-17T04:28:32;5.38;;;3.20;;
7332;SDS011;3707;43.618;25.342;2022-07-17T04:31:00;2.88;;;2.63;;
7332;SDS011;3707;43.618;25.342;2022-07-17T04:33:28;2.90;;;2.65;;
7332;SDS011;3707;43.618;25.342;2022-07-17T04:35:54;4.22;;;2.55;;
7332;SDS011;3707;43.618;25.342;2022-07-17T04:38:21;3.03;;;2.75;;
7332;SDS011;3707;43.618;25.342;2022-07-17T04:40:48;3.10;;;2.65;;
7332;SDS011;3707;43.618;25.342;2022-07-17T04:43:15;7.43;;;3.30;;
7332;SDS011;3707;43.618;25.342;2022-07-17T04:45:42;3.33;;;3.03;;
7332;SDS011;3707;43.618;25.342;2022-07-17T04:48:10;4.05;;;2.70;;
7332;SDS011;3707;43.618;25.342;2022-07-17T04:50:37;3.78;;;2.63;;
7332;SDS011;3707;43.618;25.342;2022-07-17T04:53:03;5.07;;;2.95;;
7332;SDS011;3707;43.618;25.342;2022-07-17T04:55:30;4.18;;;2.70;;
7332;SDS011;3707;43.618;25.342;2022-07-17T04:57:57;3.72;;;3.17;;
7332;SDS011;3707;43.618;25.342;2022-07-17T05:00:24;10.48;;;3.30;;
7332;SDS011;3707;43.618;25.342;2022-07-17T05:02:52;4.72;;;3.17;;
7332;SDS011;3707;43.618;25.342;2022-07-17T05:05:20;6.07;;;2.90;;
7332;SDS011;3707;43.618;25.342;2022-07-17T05:07:47;3.15;;;2.67;;
7332;SDS011;3707;43.618;25.342;2022-07-17T05:10:14;2.80;;;2.60;;
7332;SDS011;3707;43.618;25.342;2022-07-17T05:12:41;2.97;;;2.78;;
7332;SDS011;3707;43.618;25.342;2022-07-17T05:15:08;3.72;;;2.80;;
7332;SDS011;3707;43.618;25.342;2022-07-17T05:17:35;5.03;;;3.25;;
7332;SDS011;3707;43.618;25.342;2022-07-17T05:20:02;4.38;;;3.08;;
7332;SDS011;3707;43.618;25.342;2022-07-17T05:22:32;5.07;;;3.30;;
7332;SDS011;3707;43.618;25.342;2022-07-17T05:24:58;7.53;;;4.63;;
7332;SDS011;3707;43.618;25.342;2022-07-17T05:27:26;5.72;;;3.38;;
7332;SDS011;3707;43.618;25.342;2022-07-17T05:29:53;3.33;;;2.95;;
7332;SDS011;3707;43.618;25.342;2022-07-17T05:32:20;4.90;;;3.03;;
7332;SDS011;3707;43.618;25.342;2022-07-17T05:34:47;5.13;;;3.28;;
7332;SDS011;3707;43.618;25.342;2022-07-17T05:37:14;10.60;;;3.88;;
7332;SDS011;3707;43.618;25.342;2022-07-17T05:39:42;5.63;;;3.15;;
7332;SDS011;3707;43.618;25.342;2022-07-17T05:42:09;4.10;;;3.70;;
7332;SDS011;3707;43.618;25.342;2022-07-17T05:44:36;6.88;;;4.53;;
7332;SDS011;3707;43.618;25.342;2022-07-17T05:47:03;6.63;;;3.78;;
7332;SDS011;3707;43.618;25.342;2022-07-17T05:49:29;4.13;;;3.20;;
7332;SDS011;3707;43.618;25.342;2022-07-17T05:51:56;5.70;;;3.40;;
7332;SDS011;3707;43.618;25.342;2022-07-17T05:54:23;3.20;;;2.88;;
7332;SDS011;3707;43.618;25.342;2022-07-17T05:56:51;3.45;;;3.22;;
7332;SDS011;3707;43.618;25.342;2022-07-17T05:59:18;3.33;;;3.03;;
7332;SDS011;3707;43.618;25.342;2022-07-17T06:01:45;4.72;;;3.38;;
7332;SDS011;3707;43.618;25.342;2022-07-17T06:04:12;5.47;;;3.20;;
7332;SDS011;3707;43.618;25.342;2022-07-17T06:06:38;4.10;;;3.70;;
7332;SDS011;3707;43.618;25.342;2022-07-17T06:09:06;3.78;;;3.38;;
7332;SDS011;3707;43.618;25.342;2022-07-17T06:11:32;4.32;;;3.92;;
7332;SDS011;3707;43.618;25.342;2022-07-17T06:14:01;11.82;;;3.80;;
7332;SDS011;3707;43.618;25.342;2022-07-17T06:16:28;4.68;;;3.28;;
7332;SDS011;3707;43.618;25.342;2022-07-17T06:18:54;4.45;;;4.05;;
7332;SDS011;3707;43.618;25.342;2022-07-17T06:21:21;7.78;;;5.03;;
7332;SDS011;3707;43.618;25.342;2022-07-17T06:23:48;5.80;;;4.90;;
7332;SDS011;3707;43.618;25.342;2022-07-17T06:26:15;6.30;;;5.13;;
7332;SDS011;3707;43.618;25.342;2022-07-17T06:28:41;5.60;;;5.03;;
7332;SDS011;3707;43.618;25.342;2022-07-17T06:31:10;7.00;;;6.30;;
7332;SDS011;3707;43.618;25.342;2022-07-17T06:33:36;8.00;;;5.97;;
7332;SDS011;3707;43.618;25.342;2022-07-17T06:36:03;9.18;;;6.15;;
7332;SDS011;3707;43.618;25.342;2022-07-17T06:38:31;9.88;;;5.63;;
7332;SDS011;3707;43.618;25.342;2022-07-17T06:40:59;6.03;;;5.43;;
7332;SDS011;3707;43.618;25.342;2022-07-17T06:43:26;6.97;;;6.13;;
7332;SDS011;3707;43.618;25.342;2022-07-17T06:45:53;9.43;;;5.97;;
7332;SDS011;3707;43.618;25.342;2022-07-17T06:48:21;9.07;;;5.90;;
7332;SDS011;3707;43.618;25.342;2022-07-17T06:50:49;7.43;;;5.97;;
7332;SDS011;3707;43.618;25.342;2022-07-17T06:53:15;15.32;;;6.97;;
7332;SDS011;3707;43.618;25.342;2022-07-17T06:55:42;14.60;;;8.70;;
7332;SDS011;3707;43.618;25.342;2022-07-17T06:58:09;13.98;;;10.07;;
7332;SDS011;3707;43.618;25.342;2022-07-17T07:00:37;15.52;;;10.82;;
7332;SDS011;3707;43.618;25.342;2022-07-17T07:03:04;16.98;;;11.93;;
7332;SDS011;3707;43.618;25.342;2022-07-17T07:05:32;20.40;;;13.57;;
7332;SDS011;3707;43.618;25.342;2022-07-17T07:07:59;19.00;;;13.73;;
7332;SDS011;3707;43.618;25.342;2022-07-17T07:10:26;18.83;;;13.40;;
7332;SDS011;3707;43.618;25.342;2022-07-17T07:12:53;16.10;;;12.68;;
7332;SDS011;3707;43.618;25.342;2022-07-17T07:15:20;18.90;;;12.82;;
7332;SDS011;3707;43.618;25.342;2022-07-17T07:17:47;15.65;;;11.77;;
7332;SDS011;3707;43.618;25.342;2022-07-17T07:20:14;15.02;;;9.85;;
7332;SDS011;3707;43.618;25.342;2022-07-17T07:22:42;15.40;;;9.93;;
7332;SDS011;3707;43.618;25.342;2022-07-17T07:25:09;11.63;;;8.07;;
7332;SDS011;3707;43.618;25.342;2022-07-17T07:27:36;11.10;;;5.72;;
7332;SDS011;3707;43.618;25.342;2022-07-17T07:30:03;4.93;;;4.43;;
7332;SDS011;3707;43.618;25.342;2022-07-17T07:32:34;3.97;;;3.60;;
7332;SDS011;3707;43.618;25.342;2022-07-17T07:35:01;9.13;;;3.95;;
7332;SDS011;3707;43.618;25.342;2022-07-17T07:37:28;5.72;;;3.13;;
7332;SDS011;3707;43.618;25.342;2022-07-17T07:39:56;9.70;;;3.58;;
7332;SDS011;3707;43.618;25.342;2022-07-17T07:42:24;6.97;;;4.43;;
7332;SDS011;3707;43.618;25.342;2022-07-17T07:44:51;4.93;;;2.80;;
7332;SDS011;3707;43.618;25.342;2022-07-17T07:47:18;6.20;;;2.83;;
7332;SDS011;3707;43.618;25.342;2022-07-17T07:49:45;5.32;;;2.83;;
7332;SDS011;3707;43.618;25.342;2022-07-17T07:52:12;3.78;;;3.38;;
7332;SDS011;3707;43.618;25.342;2022-07-17T07:54:39;6.43;;;3.28;;
7332;SDS011;3707;43.618;25.342;2022-07-17T07:57:07;8.70;;;3.40;;
7332;SDS011;3707;43.618;25.342;2022-07-17T07:59:34;3.75;;;3.38;;
7332;SDS011;3707;43.618;25.342;2022-07-17T08:02:02;6.15;;;3.10;;
7332;SDS011;3707;43.618;25.342;2022-07-17T08:04:28;2.88;;;2.60;;
7332;SDS011;3707;43.618;25.342;2022-07-17T08:06:56;3.30;;;3.00;;
7332;SDS011;3707;43.618;25.342;2022-07-17T08:09:23;6.10;;;2.78;;
7332;SDS011;3707;43.618;25.342;2022-07-17T08:11:50;5.15;;;2.80;;
7332;SDS011;3707;43.618;25.342;2022-07-17T08:14:18;7.00;;;2.70;;
7332;SDS011;3707;43.618;25.342;2022-07-17T08:16:44;2.92;;;2.72;;
7332;SDS011;3707;43.618;25.342;2022-07-17T08:19:11;4.55;;;2.67;;
7332;SDS011;3707;43.618;25.342;2022-07-17T08:21:38;3.00;;;2.70;;
7332;SDS011;3707;43.618;25.342;2022-07-17T08:24:05;4.57;;;2.53;;
7332;SDS011;3707;43.618;25.342;2022-07-17T08:26:32;4.40;;;2.40;;
7332;SDS011;3707;43.618;25.342;2022-07-17T08:28:59;3.08;;;2.60;;
7332;SDS011;3707;43.618;25.342;2022-07-17T08:31:27;3.22;;;2.05;;
7332;SDS011;3707;43.618;25.342;2022-07-17T08:33:54;3.38;;;2.20;;
7332;SDS011;3707;43.618;25.342;2022-07-17T08:36:21;1.98;;;1.83;;
7332;SDS011;3707;43.618;25.342;2022-07-17T08:38:48;2.60;;;2.10;;
7332;SDS011;3707;43.618;25.342;2022-07-17T08:41:15;2.33;;;2.10;;
7332;SDS011;3707;43.618;25.342;2022-07-17T08:43:43;3.20;;;2.28;;
7332;SDS011;3707;43.618;25.342;2022-07-17T08:46:13;2.75;;;2.20;;
7332;SDS011;3707;43.618;25.342;2022-07-17T08:48:44;4.53;;;2.75;;
7332;SDS011;3707;43.618;25.342;2022-07-17T08:51:14;6.78;;;2.92;;
7332;SDS011;3707;43.618;25.342;2022-07-17T08:53:43;5.82;;;2.70;;
7332;SDS011;3707;43.618;25.342;2022-07-17T08:56:10;3.95;;;2.70;;
7332;SDS011;3707;43.618;25.342;2022-07-17T08:58:36;3.90;;;2.83;;
7332;SDS011;3707;43.618;25.342;2022-07-17T09:01:03;2.95;;;2.25;;
7332;SDS011;3707;43.618;25.342;2022-07-17T09:03:30;2.63;;;2.42;;
7332;SDS011;3707;43.618;25.342;2022-07-17T09:05:59;4.45;;;2.35;;
7332;SDS011;3707;43.618;25.342;2022-07-17T09:08:26;3.15;;;2.20;;
7332;SDS011;3707;43.618;25.342;2022-07-17T09:10:57;5.97;;;2.22;;
7332;SDS011;3707;43.618;25.342;2022-07-17T09:13:25;6.82;;;4.60;;
7332;SDS011;3707;43.618;25.342;2022-07-17T09:15:55;3.58;;;1.88;;
7332;SDS011;3707;43.618;25.342;2022-07-17T09:18:23;6.05;;;2.88;;
7332;SDS011;3707;43.618;25.342;2022-07-17T09:20:50;4.38;;;3.25;;
7332;SDS011;3707;43.618;25.342;2022-07-17T09:23:20;7.47;;;3.10;;
7332;SDS011;3707;43.618;25.342;2022-07-17T09:25:49;4.22;;;3.88;;
7332;SDS011;3707;43.618;25.342;2022-07-17T09:28:17;5.88;;;3.55;;
7332;SDS011;3707;43.618;25.342;2022-07-17T09:30:46;4.95;;;3.47;;
7332;SDS011;3707;43.618;25.342;2022-07-17T09:33:18;7.07;;;3.83;;
7332;SDS011;3707;43.618;25.342;2022-07-17T09:35:47;4.97;;;4.10;;
7332;SDS011;3707;43.618;25.342;2022-07-17T09:38:28;5.85;;;2.92;;
7332;SDS011;3707;43.618;25.342;2022-07-17T09:41:03;3.78;;;2.85;;
7332;SDS011;3707;43.618;25.342;2022-07-17T09:43:45;3.95;;;2.58;;
7332;SDS011;3707;43.618;25.342;2022-07-17T09:46:15;4.07;;;3.05;;
7332;SDS011;3707;43.618;25.342;2022-07-17T09:48:46;4.70;;;3.13;;
7332;SDS011;3707;43.618;25.342;2022-07-17T09:51:15;2.58;;;2.42;;
7332;SDS011;3707;43.618;25.342;2022-07-17T09:53:46;3.50;;;3.20;;
7332;SDS011;3707;43.618;25.342;2022-07-17T09:56:14;3.88;;;2.60;;
7332;SDS011;3707;43.618;25.342;2022-07-17T09:58:43;2.60;;;2.20;;
7332;SDS011;3707;43.618;25.342;2022-07-17T10:01:14;4.22;;;2.17;;
7332;SDS011;3707;43.618;25.342;2022-07-17T10:03:41;2.42;;;2.25;;
7332;SDS011;3707;43.618;25.342;2022-07-17T10:06:09;2.92;;;2.72;;
7332;SDS011;3707;43.618;25.342;2022-07-17T10:08:36;2.85;;;2.28;;
7332;SDS011;3707;43.618;25.342;2022-07-17T10:11:06;7.25;;;2.45;;
7332;SDS011;3707;43.618;25.342;2022-07-17T10:13:35;2.85;;;2.60;;
7332;SDS011;3707;43.618;25.342;2022-07-17T10:16:03;4.38;;;2.42;;
7332;SDS011;3707;43.618;25.342;2022-07-17T10:18:37;2.50;;;2.08;;
7332;SDS011;3707;43.618;25.342;2022-07-17T10:21:17;18.83;;;13.10;;
7332;SDS011;3707;43.618;25.342;2022-07-17T10:23:48;30.48;;;22.23;;
7332;SDS011;3707;43.618;25.342;2022-07-17T10:26:33;3.20;;;2.10;;
7332;SDS011;3707;43.618;25.342;2022-07-17T10:29:06;2.42;;;2.33;;
7332;SDS011;3707;43.618;25.342;2022-07-17T10:31:34;2.92;;;2.55;;
7332;SDS011;3707;43.618;25.342;2022-07-17T10:34:02;3.17;;;2.20;;
7332;SDS011;3707;43.618;25.342;2022-07-17T10:36:34;3.35;;;3.08;;
7332;SDS011;3707;43.618;25.342;2022-07-17T10:39:15;5.28;;;2.95;;
7332;SDS011;3707;43.618;25.342;2022-07-17T10:41:58;3.58;;;2.72;;
7332;SDS011;3707;43.618;25.342;2022-07-17T10:44:26;4.13;;;2.50;;
7332;SDS011;3707;43.618;25.342;2022-07-17T10:46:54;4.00;;;3.08;;
7332;SDS011;3707;43.618;25.342;2022-07-17T10:49:22;4.40;;;2.45;;
7332;SDS011;3707;43.618;25.342;2022-07-17T10:51:49;8.10;;;2.72;;
7332;SDS011;3707;43.618;25.342;2022-07-17T10:54:17;4.53;;;2.50;;
7332;SDS011;3707;43.618;25.342;2022-07-17T10:56:45;2.90;;;2.53;;
7332;SDS011;3707;43.618;25.342;2022-07-17T10:59:13;6.22;;;2.83;;
7332;SDS011;3707;43.618;25.342;2022-07-17T11:01:39;5.38;;;2.70;;
7332;SDS011;3707;43.618;25.342;2022-07-17T11:04:06;3.67;;;2.72;;
7332;SDS011;3707;43.618;25.342;2022-07-17T11:06:34;3.28;;;2.83;;
7332;SDS011;3707;43.618;25.342;2022-07-17T11:09:03;6.30;;;3.15;;
7332;SDS011;3707;43.618;25.342;2022-07-17T11:11:35;8.93;;;2.88;;
7332;SDS011;3707;43.618;25.342;2022-07-17T11:14:11;3.17;;;2.50;;
7332;SDS011;3707;43.618;25.342;2022-07-17T11:16:44;3.45;;;3.00;;
7332;SDS011;3707;43.618;25.342;2022-07-17T11:19:12;5.10;;;2.70;;
7332;SDS011;3707;43.618;25.342;2022-07-17T11:21:46;4.20;;;3.15;;
7332;SDS011;3707;43.618;25.342;2022-07-17T11:24:13;8.88;;;3.10;;
7332;SDS011;3707;43.618;25.342;2022-07-17T11:26:41;4.07;;;2.67;;
7332;SDS011;3707;43.618;25.342;2022-07-17T11:29:08;2.75;;;2.50;;
7332;SDS011;3707;43.618;25.342;2022-07-17T11:31:37;4.03;;;2.80;;
7332;SDS011;3707;43.618;25.342;2022-07-17T11:34:04;7.82;;;2.78;;
7332;SDS011;3707;43.618;25.342;2022-07-17T11:36:35;4.72;;;2.70;;
7332;SDS011;3707;43.618;25.342;2022-07-17T11:39:04;4.43;;;2.58;;
7332;SDS011;3707;43.618;25.342;2022-07-17T11:41:36;5.70;;;2.42;;
7332;SDS011;3707;43.618;25.342;2022-07-17T11:44:05;5.72;;;2.78;;
7332;SDS011;3707;43.618;25.342;2022-07-17T11:46:36;2.72;;;2.53;;
7332;SDS011;3707;43.618;25.342;2022-07-17T11:49:05;2.30;;;2.20;;
7332;SDS011;3707;43.618;25.342;2022-07-17T11:51:33;10.45;;;7.63;;
7332;SDS011;3707;43.618;25.342;2022-07-17T11:54:05;6.45;;;4.85;;
7332;SDS011;3707;43.618;25.342;2022-07-17T11:56:33;5.68;;;2.72;;
7332;SDS011;3707;43.618;25.342;2022-07-17T11:59:00;3.08;;;1.85;;
7332;SDS011;3707;43.618;25.342;2022-07-17T12:01:28;4.93;;;2.80;;
7332;SDS011;3707;43.618;25.342;2022-07-17T12:03:58;3.28;;;2.30;;
7332;SDS011;3707;43.618;25.342;2022-07-17T12:06:25;2.50;;;2.30;;
7332;SDS011;3707;43.618;25.342;2022-07-17T12:08:53;2.10;;;2.00;;
7332;SDS011;3707;43.618;25.342;2022-07-17T12:11:20;5.78;;;2.10;;
7332;SDS011;3707;43.618;25.342;2022-07-17T12:13:48;7.80;;;2.80;;
7332;SDS011;3707;43.618;25.342;2022-07-17T12:16:19;6.93;;;2.50;;
7332;SDS011;3707;43.618;25.342;2022-07-17T12:18:59;8.80;;;2.92;;
7332;SDS011;3707;43.618;25.342;2022-07-17T12:21:29;3.55;;;2.50;;
7332;SDS011;3707;43.618;25.342;2022-07-17T12:23:58;3.30;;;2.70;;
7332;SDS011;3707;43.618;25.342;2022-07-17T12:26:27;5.47;;;2.60;;
7332;SDS011;3707;43.618;25.342;2022-07-17T12:28:55;2.63;;;2.45;;
7332;SDS011;3707;43.618;25.342;2022-07-17T12:31:22;3.35;;;2.70;;
7332;SDS011;3707;43.618;25.342;2022-07-17T12:33:50;6.68;;;2.72;;
7332;SDS011;3707;43.618;25.342;2022-07-17T12:36:20;7.03;;;2.65;;
7332;SDS011;3707;43.618;25.342;2022-07-17T12:38:48;3.08;;;2.70;;
7332;SDS011;3707;43.618;25.342;2022-07-17T12:41:15;2.70;;;2.50;;
7332;SDS011;3707;43.618;25.342;2022-07-17T12:43:42;4.85;;;2.72;;
7332;SDS011;3707;43.618;25.342;2022-07-17T12:46:10;4.00;;;2.38;;
7332;SDS011;3707;43.618;25.342;2022-07-17T12:48:36;2.78;;;2.58;;
7332;SDS011;3707;43.618;25.342;2022-07-17T12:51:05;4.78;;;2.88;;
7332;SDS011;3707;43.618;25.342;2022-07-17T12:53:34;5.95;;;3.00;;
7332;SDS011;3707;43.618;25.342;2022-07-17T12:56:01;6.93;;;3.13;;
7332;SDS011;3707;43.618;25.342;2022-07-17T12:58:29;4.32;;;3.25;;
7332;SDS011;3707;43.618;25.342;2022-07-17T13:00:56;6.45;;;3.08;;
7332;SDS011;3707;43.618;25.342;2022-07-17T13:03:23;6.38;;;2.88;;
7332;SDS011;3707;43.618;25.342;2022-07-17T13:05:50;4.05;;;2.60;;
7332;SDS011;3707;43.618;25.342;2022-07-17T13:08:16;5.38;;;2.50;;
7332;SDS011;3707;43.618;25.342;2022-07-17T13:10:45;9.00;;;2.50;;
7332;SDS011;3707;43.618;25.342;2022-07-17T13:13:11;3.33;;;2.50;;
7332;SDS011;3707;43.618;25.342;2022-07-17T13:15:39;3.40;;;2.30;;
7332;SDS011;3707;43.618;25.342;2022-07-17T13:18:06;4.70;;;2.17;;
7332;SDS011;3707;43.618;25.342;2022-07-17T13:20:33;4.63;;;2.30;;
7332;SDS011;3707;43.618;25.342;2022-07-17T13:23:00;5.30;;;2.35;;
7332;SDS011;3707;43.618;25.342;2022-07-17T13:25:27;2.75;;;2.58;;
7332;SDS011;3707;43.618;25.342;2022-07-17T13:27:55;4.13;;;2.05;;
7332;SDS011;3707;43.618;25.342;2022-07-17T13:30:22;2.47;;;2.28;;
7332;SDS011;3707;43.618;25.342;2022-07-17T13:32:49;4.18;;;2.42;;
7332;SDS011;3707;43.618;25.342;2022-07-17T13:35:16;2.97;;;2.13;;
7332;SDS011;3707;43.618;25.342;2022-07-17T13:37:43;2.92;;;1.88;;
7332;SDS011;3707;43.618;25.342;2022-07-17T13:40:10;8.05;;;2.30;;
7332;SDS011;3707;43.618;25.342;2022-07-17T13:42:38;2.70;;;2.47;;
7332;SDS011;3707;43.618;25.342;2022-07-17T13:45:07;6.40;;;2.30;;
7332;SDS011;3707;43.618;25.342;2022-07-17T13:47:34;2.88;;;2.45;;
7332;SDS011;3707;43.618;25.342;2022-07-17T13:50:01;5.95;;;2.95;;
7332;SDS011;3707;43.618;25.342;2022-07-17T13:52:29;4.07;;;2.28;;
7332;SDS011;3707;43.618;25.342;2022-07-17T13:54:56;5.97;;;2.97;;
7332;SDS011;3707;43.618;25.342;2022-07-17T13:57:23;5.45;;;2.47;;
7332;SDS011;3707;43.618;25.342;2022-07-17T13:59:50;6.60;;;2.70;;
7332;SDS011;3707;43.618;25.342;2022-07-17T14:02:18;2.63;;;2.30;;
7332;SDS011;3707;43.618;25.342;2022-07-17T14:04:44;3.92;;;2.40;;
7332;SDS011;3707;43.618;25.342;2022-07-17T14:07:12;7.25;;;2.40;;
7332;SDS011;3707;43.618;25.342;2022-07-17T14:09:40;4.35;;;1.80;;
7332;SDS011;3707;43.618;25.342;2022-07-17T14:12:07;24.90;;;13.38;;
7332;SDS011;3707;43.618;25.342;2022-07-17T14:14:33;9.70;;;5.03;;
7332;SDS011;3707;43.618;25.342;2022-07-17T14:17:00;4.10;;;2.30;;
7332;SDS011;3707;43.618;25.342;2022-07-17T14:19:29;2.80;;;2.50;;
7332;SDS011;3707;43.618;25.342;2022-07-17T14:21:55;8.60;;;1.90;;
7332;SDS011;3707;43.618;25.342;2022-07-17T14:24:22;3.40;;;2.50;;
7332;SDS011;3707;43.618;25.342;2022-07-17T14:26:49;5.03;;;2.20;;
7332;SDS011;3707;43.618;25.342;2022-07-17T14:29:16;3.55;;;2.60;;
7332;SDS011;3707;43.618;25.342;2022-07-17T14:31:42;2.40;;;2.10;;
7332;SDS011;3707;43.618;25.342;2022-07-17T14:34:09;8.73;;;2.83;;
7332;SDS011;3707;43.618;25.342;2022-07-17T14:36:38;3.78;;;2.40;;
7332;SDS011;3707;43.618;25.342;2022-07-17T14:39:05;3.30;;;2.58;;
7332;SDS011;3707;43.618;25.342;2022-07-17T14:41:32;2.97;;;2.60;;
7332;SDS011;3707;43.618;25.342;2022-07-17T14:43:59;4.13;;;2.50;;
7332;SDS011;3707;43.618;25.342;2022-07-17T14:46:25;4.68;;;2.40;;
7332;SDS011;3707;43.618;25.342;2022-07-17T14:48:52;5.13;;;3.00;;
7332;SDS011;3707;43.618;25.342;2022-07-17T14:51:19;6.22;;;2.75;;
7332;SDS011;3707;43.618;25.342;2022-07-17T14:53:47;6.72;;;3.03;;
7332;SDS011;3707;43.618;25.342;2022-07-17T14:56:14;2.88;;;2.67;;
7332;SDS011;3707;43.618;25.342;2022-07-17T14:58:41;3.47;;;3.20;;
7332;SDS011;3707;43.618;25.342;2022-07-17T15:01:08;5.25;;;3.25;;
7332;SDS011;3707;43.618;25.342;2022-07-17T15:03:35;6.55;;;3.30;;